createdAt,value
2023-02-26T00:04:38.142Z,3.10
2023-02-26T00:09:45.681Z,3.53
2023-02-26T00:14:51.144Z,2.10
2023-02-26T00:19:56.296Z,3.08
2023-02-26T00:25:03.633Z,2.15
2023-02-26T00:30:09.652Z,5.75
2023-02-26T00:35:16.380Z,12.80
2023-02-26T00:40:26.423Z,2.72
2023-02-26T00:45:32.207Z,2.10
2023-02-26T00:50:38.164Z,0.90
2023-02-26T00:55:45.434Z,0.52
2023-02-26T01:00:50.251Z,0.80
2023-02-26T01:05:55.253Z,1.55
2023-02-26T01:11:03.681Z,1.15
2023-02-26T01:16:10.994Z,1.40
2023-02-26T01:21:18.341Z,1.83
2023-02-26T01:26:27.282Z,1.13
2023-02-26T01:31:46.121Z,0.90
2023-02-26T01:36:53.643Z,0.88
2023-02-26T01:42:03.642Z,0.98
2023-02-26T01:47:12.504Z,1.20
2023-02-26T01:52:32.089Z,0.85
2023-02-26T01:57:39.434Z,1.02
2023-02-26T02:02:44.472Z,1.35
2023-02-26T02:07:51.288Z,1.27
2023-02-26T02:13:05.324Z,1.83
2023-02-26T02:18:15.813Z,1.13
2023-02-26T02:23:22.866Z,1.10
2023-02-26T02:28:38.335Z,1.80
2023-02-26T02:33:50.383Z,1.75
2023-02-26T02:38:57.463Z,2.05
2023-02-26T02:44:04.340Z,2.13
2023-02-26T02:49:13.649Z,2.10
2023-02-26T02:54:20.888Z,2.78
2023-02-26T02:59:27.626Z,2.90
2023-02-26T03:04:34.959Z,2.05
2023-02-26T03:09:39.644Z,2.50
2023-02-26T03:14:44.982Z,2.40
2023-02-26T03:19:59.458Z,2.15
2023-02-26T03:25:07.910Z,2.20
2023-02-26T03:30:16.867Z,2.67
2023-02-26T03:35:27.092Z,2.22
2023-02-26T03:40:34.551Z,2.13
2023-02-26T03:45:40.970Z,2.75
2023-02-26T03:50:49.688Z,2.90
2023-02-26T03:55:58.720Z,2.70
2023-02-26T04:01:06.117Z,3.22
2023-02-26T04:06:13.677Z,2.65
2023-02-26T04:11:20.217Z,3.15
2023-02-26T04:16:25.501Z,4.80
2023-02-26T04:21:33.137Z,3.42
2023-02-26T04:26:37.952Z,2.97
2023-02-26T04:31:43.477Z,2.78
2023-02-26T04:36:50.994Z,2.63
2023-02-26T04:41:55.749Z,2.42
2023-02-26T04:47:00.627Z,2.67
2023-02-26T04:52:07.973Z,2.97
2023-02-26T04:57:12.884Z,2.97
2023-02-26T05:02:17.667Z,2.40
2023-02-26T05:07:25.042Z,2.38
2023-02-26T05:12:29.736Z,2.50
2023-02-26T05:17:34.382Z,3.17
2023-02-26T05:22:42.119Z,4.45
2023-02-26T05:27:46.891Z,3.10
2023-02-26T05:32:52.082Z,4.10
2023-02-26T05:38:00.131Z,3.80
2023-02-26T05:43:04.808Z,4.70
2023-02-26T05:48:11.326Z,4.22
2023-02-26T05:53:18.809Z,4.22
2023-02-26T05:58:23.668Z,3.85
2023-02-26T06:03:28.625Z,3.20
2023-02-26T06:08:36.105Z,3.15
2023-02-26T06:13:40.804Z,2.58
2023-02-26T06:18:45.686Z,2.95
2023-02-26T06:23:52.982Z,3.22
2023-02-26T06:28:57.833Z,2.92
2023-02-26T06:34:02.860Z,3.83
2023-02-26T06:39:12.891Z,3.85
2023-02-26T06:44:17.718Z,3.45
2023-02-26T06:49:22.432Z,3.80
2023-02-26T06:54:29.766Z,3.45
2023-02-26T06:59:35.045Z,3.90
2023-02-26T07:04:39.812Z,4.20
2023-02-26T07:09:47.400Z,4.05
2023-02-26T07:14:52.134Z,4.07
2023-02-26T07:19:56.974Z,3.97
2023-02-26T07:25:04.584Z,3.83
2023-02-26T07:30:10.518Z,3.88
2023-02-26T07:35:15.446Z,3.35
2023-02-26T07:40:22.991Z,3.97
2023-02-26T07:45:28.023Z,3.53
2023-02-26T07:50:33.867Z,3.50
2023-02-26T07:55:41.125Z,3.65
2023-02-26T08:00:45.949Z,4.60
2023-02-26T08:05:51.049Z,3.63
2023-02-26T08:10:58.794Z,4.78
2023-02-26T08:16:03.527Z,4.05
2023-02-26T08:21:08.927Z,4.60
2023-02-26T08:26:16.375Z,4.70
2023-02-26T08:31:21.163Z,4.80
2023-02-26T08:36:26.997Z,4.20
2023-02-26T08:41:36.689Z,3.97
2023-02-26T08:46:41.524Z,4.33
2023-02-26T08:51:46.287Z,3.83
2023-02-26T08:56:53.684Z,5.88
2023-02-26T09:01:58.577Z,4.72
2023-02-26T09:07:03.370Z,4.97
2023-02-26T09:12:10.919Z,6.18
2023-02-26T09:17:15.647Z,8.63
2023-02-26T09:22:20.448Z,4.63
2023-02-26T09:27:28.152Z,4.40
2023-02-26T09:32:33.103Z,3.63
2023-02-26T09:37:37.908Z,4.65
2023-02-26T09:42:55.704Z,3.97
2023-02-26T09:48:00.686Z,3.55
2023-02-26T09:53:09.948Z,3.88
2023-02-26T09:58:19.543Z,3.30
2023-02-26T10:03:31.452Z,3.27
2023-02-26T10:08:41.060Z,3.95
2023-02-26T10:13:57.479Z,3.20
2023-02-26T10:19:05.564Z,2.92
2023-02-26T10:24:14.202Z,4.03
2023-02-26T10:29:24.824Z,3.47
2023-02-26T10:34:33.076Z,3.30
2023-02-26T10:39:41.114Z,4.57
2023-02-26T10:44:52.250Z,3.72
2023-02-26T10:49:57.885Z,4.82
2023-02-26T10:55:22.763Z,4.07
2023-02-26T11:00:30.424Z,4.72
2023-02-26T11:05:36.109Z,5.07
2023-02-26T11:10:45.499Z,5.90
2023-02-26T11:15:55.077Z,4.60
2023-02-26T11:21:01.019Z,6.23
2023-02-26T11:26:07.504Z,6.07
2023-02-26T11:31:15.933Z,7.25
2023-02-26T11:36:21.704Z,5.88
2023-02-26T11:41:27.727Z,6.68
2023-02-26T11:46:39.317Z,6.82
2023-02-26T11:51:46.100Z,7.65
2023-02-26T11:56:50.987Z,8.30
2023-02-26T12:01:58.313Z,8.60
2023-02-26T12:07:03.132Z,8.82
2023-02-26T12:12:12.807Z,8.82
2023-02-26T12:17:32.962Z,9.68
2023-02-26T12:22:43.693Z,8.73
2023-02-26T12:27:54.890Z,7.60
2023-02-26T12:33:08.448Z,6.65
2023-02-26T12:38:20.561Z,7.18
2023-02-26T12:43:28.759Z,6.80
2023-02-26T12:48:51.603Z,8.68
2023-02-26T12:54:08.523Z,9.77
2023-02-26T12:59:21.420Z,10.70
2023-02-26T13:04:44.339Z,9.82
2023-02-26T13:09:55.938Z,11.02
2023-02-26T13:15:08.182Z,10.90
2023-02-26T13:20:15.754Z,9.68
2023-02-26T13:25:26.581Z,8.43
2023-02-26T13:30:33.366Z,10.10
2023-02-26T13:35:40.091Z,9.05
2023-02-26T13:40:56.635Z,15.02
2023-02-26T13:46:08.176Z,11.32
2023-02-26T13:51:15.180Z,11.30
2023-02-26T13:56:24.745Z,8.93
2023-02-26T14:01:35.890Z,9.30
2023-02-26T14:06:42.356Z,8.52
2023-02-26T14:12:01.200Z,8.00
2023-02-26T14:17:22.864Z,7.47
2023-02-26T14:22:41.925Z,7.57
2023-02-26T14:27:49.897Z,8.13
2023-02-26T14:32:56.865Z,7.15
2023-02-26T14:38:03.418Z,7.18
2023-02-26T14:43:15.117Z,7.88
2023-02-26T14:48:20.744Z,7.50
2023-02-26T14:53:46.323Z,7.18
2023-02-26T14:59:14.748Z,6.60
2023-02-26T15:04:34.971Z,8.20
2023-02-26T15:09:49.377Z,9.90
2023-02-26T15:15:01.054Z,24.42
2023-02-26T15:20:13.270Z,20.08
2023-02-26T15:25:26.945Z,7.80
2023-02-26T15:30:32.695Z,7.45
2023-02-26T15:35:37.692Z,9.38
2023-02-26T15:40:45.925Z,13.82
2023-02-26T15:45:51.385Z,7.35
2023-02-26T15:50:57.947Z,6.40
2023-02-26T15:56:07.316Z,8.48
2023-02-26T16:01:17.847Z,7.32
2023-02-26T16:06:23.773Z,9.60
2023-02-26T16:11:35.463Z,7.20
2023-02-26T16:16:44.038Z,7.55
2023-02-26T16:21:49.120Z,6.95
2023-02-26T16:26:58.816Z,6.63
2023-02-26T16:32:05.264Z,10.60
2023-02-26T16:37:13.689Z,8.48
2023-02-26T16:42:24.546Z,13.23
2023-02-26T16:47:30.209Z,31.52
2023-02-26T16:52:36.689Z,10.32
2023-02-26T16:57:45.870Z,13.52
2023-02-26T17:02:51.858Z,23.88
2023-02-26T17:07:58.851Z,13.68
2023-02-26T17:13:16.758Z,13.90
2023-02-26T17:18:21.672Z,13.05
2023-02-26T17:23:27.127Z,11.02
2023-02-26T17:28:36.032Z,11.85
2023-02-26T17:33:41.498Z,13.75
2023-02-26T17:38:47.487Z,13.60
2023-02-26T17:43:55.261Z,9.60
2023-02-26T17:49:05.814Z,11.70
2023-02-26T17:54:11.056Z,7.07
2023-02-26T18:15:39.002Z,8.80
2023-02-26T18:20:44.400Z,10.55
2023-02-26T18:25:50.164Z,25.65
2023-02-26T18:30:58.519Z,22.50
2023-02-26T18:36:03.808Z,8.32
2023-02-26T18:41:08.984Z,8.68
2023-02-26T18:46:16.550Z,10.90
2023-02-26T18:51:21.493Z,10.30
2023-02-26T18:56:28.339Z,9.35
2023-02-26T19:01:35.992Z,8.18
2023-02-26T19:06:41.016Z,8.43
2023-02-26T19:11:48.156Z,9.38
2023-02-26T19:16:55.818Z,10.13
2023-02-26T19:22:02.320Z,8.15
2023-02-26T19:27:08.081Z,7.97
2023-02-26T19:32:15.926Z,8.18
2023-02-26T19:37:21.040Z,7.88
2023-02-26T19:42:28.559Z,7.30
2023-02-26T19:47:35.946Z,9.68
2023-02-26T19:52:40.772Z,8.02
2023-02-26T19:57:46.513Z,7.40
2023-02-26T20:02:56.580Z,8.75
2023-02-26T20:08:01.463Z,8.27
2023-02-26T20:13:06.557Z,7.82
2023-02-26T20:18:14.186Z,8.45
2023-02-26T20:23:18.961Z,8.13
2023-02-26T20:28:23.755Z,9.20
2023-02-26T20:33:33.388Z,9.45
2023-02-26T20:38:43.144Z,8.73
2023-02-26T20:43:48.140Z,9.30
2023-02-26T20:48:55.962Z,9.00
2023-02-26T20:54:00.737Z,7.53
2023-02-26T20:59:05.485Z,8.57
2023-02-26T21:04:13.453Z,6.78
2023-02-26T21:09:18.528Z,8.27
2023-02-26T21:14:24.808Z,6.70
2023-02-26T21:19:32.282Z,6.97
2023-02-26T21:24:37.048Z,6.28
2023-02-26T21:29:41.956Z,7.57
2023-02-26T21:34:52.381Z,5.47
2023-02-26T21:39:57.173Z,5.80
2023-02-26T21:45:04.414Z,5.07
2023-02-26T21:50:12.825Z,6.75
2023-02-26T21:55:17.786Z,7.38
2023-02-26T22:00:23.430Z,11.05
2023-02-26T22:05:30.959Z,7.55
2023-02-26T22:10:42.030Z,6.95
2023-02-26T22:15:46.950Z,7.10
2023-02-26T22:21:11.111Z,6.68
2023-02-26T22:26:18.826Z,8.15
2023-02-26T22:31:23.861Z,7.38
2023-02-26T22:36:30.335Z,7.65
2023-02-26T22:41:38.009Z,6.75
2023-02-26T22:46:42.967Z,6.82
2023-02-26T22:51:47.835Z,6.82
2023-02-26T22:56:55.244Z,6.40
2023-02-26T23:02:00.026Z,6.60
2023-02-26T23:07:04.848Z,6.90
2023-02-26T23:12:12.840Z,6.82
2023-02-26T23:17:17.974Z,5.55
2023-02-26T23:22:22.877Z,5.90
2023-02-26T23:27:30.238Z,5.45
2023-02-26T23:32:35.142Z,6.13
2023-02-26T23:37:39.931Z,9.88
2023-02-26T23:42:47.326Z,6.47
2023-02-26T23:47:51.968Z,16.70
2023-02-26T23:52:56.744Z,5.90
2023-02-26T23:58:04.292Z,9.52
